Time;durP1;ratioP1;P1;durP2;ratioP2;P2;SDS_P1;SDS_P2;PMS_P1;PMS_P2;Temp;Humidity;BMP_temperature;BMP_pressure;BME280_temperature;BME280_humidity;BME280_pressure;Samples;Min_cycle;Max_cycle;Signal;HPM_P1;HPM_P2
2022/12/06 00:00:12;;;;;;;0.00;0.00;;;14.10;81.10;;;;;;4209017;28;20301;-60
2022/12/06 00:02:53;;;;;;;0.00;0.00;;;14.10;81.10;;;;;;4206629;28;20043;-61
2022/12/06 00:05:36;;;;;;;0.47;0.47;;;14.10;81.20;;;;;;4177145;28;20175;-61
2022/12/06 00:08:21;;;;;;;0.00;0.00;;;14.10;81.20;;;;;;4202388;28;20552;-61
2022/12/06 00:11:07;;;;;;;0.00;0.00;;;14.10;81.20;;;;;;4209396;28;20051;-60
2022/12/06 00:13:53;;;;;;;0.00;0.00;;;14.10;81.30;;;;;;4209095;28;20055;-61
2022/12/06 00:16:36;;;;;;;0.00;0.00;;;14.20;81.30;;;;;;4191488;28;20059;-60
2022/12/06 00:19:20;;;;;;;0.00;0.00;;;14.20;81.30;;;;;;4208290;28;20666;-60
2022/12/06 00:22:02;;;;;;;0.00;0.00;;;14.20;81.30;;;;;;4208929;28;20055;-60
2022/12/06 00:24:43;;;;;;;0.00;0.00;;;14.20;81.40;;;;;;4208647;28;20403;-61
2022/12/06 00:27:25;;;;;;;0.00;0.00;;;14.10;81.30;;;;;;4208213;28;20118;-60
2022/12/06 00:30:07;;;;;;;0.00;0.00;;;14.10;81.40;;;;;;4191918;28;20154;-60
2022/12/06 00:32:48;;;;;;;0.20;0.20;;;14.20;81.50;;;;;;4191733;28;20388;-61
2022/12/06 00:35:29;;;;;;;0.00;0.00;;;14.20;81.50;;;;;;4192073;28;20197;-61
2022/12/06 00:38:12;;;;;;;0.00;0.00;;;14.10;81.30;;;;;;4191394;28;20403;-60
2022/12/06 00:40:59;;;;;;;0.00;0.00;;;14.20;81.40;;;;;;4175085;28;20066;-61
2022/12/06 00:43:40;;;;;;;0.00;0.00;;;14.20;81.40;;;;;;4191836;28;20097;-60
2022/12/06 00:46:24;;;;;;;0.00;0.00;;;14.20;81.40;;;;;;4192125;28;20483;-60
2022/12/06 00:49:07;;;;;;;0.00;0.00;;;14.20;82.30;;;;;;4191817;28;20052;-61
2022/12/06 00:51:48;;;;;;;0.00;0.00;;;14.20;81.20;;;;;;4192021;28;20056;-59
2022/12/06 00:54:30;;;;;;;0.00;0.00;;;14.10;81.20;;;;;;4192069;28;20061;-61
2022/12/06 00:57:12;;;;;;;0.00;0.00;;;14.20;81.20;;;;;;4190850;28;20180;-60
2022/12/06 00:59:53;;;;;;;0.00;0.00;;;14.20;81.40;;;;;;4208667;28;20128;-62
2022/12/06 01:02:34;;;;;;;2.08;1.38;;;14.20;81.10;;;;;;4207173;28;20054;-61
2022/12/06 01:05:15;;;;;;;0.00;0.00;;;14.30;80.90;;;;;;4208973;28;20054;-61
2022/12/06 01:07:57;;;;;;;0.00;0.00;;;14.30;80.70;;;;;;4208197;28;20352;-61
2022/12/06 01:10:40;;;;;;;0.00;0.00;;;14.30;80.40;;;;;;4207979;28;20047;-61
2022/12/06 01:13:21;;;;;;;0.00;0.00;;;14.30;80.20;;;;;;4207764;28;20066;-62
2022/12/06 01:16:06;;;;;;;0.00;0.00;;;14.30;80.20;;;;;;4195746;28;20047;-61
2022/12/06 01:18:47;;;;;;;0.00;0.00;;;14.30;80.20;;;;;;4207916;28;20101;-61
2022/12/06 01:21:29;;;;;;;0.00;0.00;;;14.30;80.20;;;;;;4207929;28;20059;-62
2022/12/06 01:24:09;;;;;;;;;;;14.30;80.40;;;;;;4208601;28;20054;-61
2022/12/06 01:26:51;;;;;;;0.00;0.00;;;14.30;80.50;;;;;;4207026;28;19931;-61
2022/12/06 01:29:32;;;;;;;0.10;0.10;;;14.40;80.60;;;;;;4207333;28;20063;-61
2022/12/06 01:32:13;;;;;;;0.00;0.00;;;14.50;80.20;;;;;;4207497;28;20153;-61
2022/12/06 01:34:54;;;;;;;0.00;0.00;;;14.50;80.00;;;;;;4207487;28;20140;-62
2022/12/06 01:37:35;;;;;;;0.00;0.00;;;14.60;79.60;;;;;;4208035;28;20054;-61
2022/12/06 01:40:16;;;;;;;0.00;0.00;;;14.60;79.40;;;;;;4207942;28;20192;-61
2022/12/06 01:42:58;;;;;;;0.00;0.00;;;14.60;79.30;;;;;;4208018;28;20132;-61
2022/12/06 01:45:39;;;;;;;0.00;0.00;;;14.70;79.30;;;;;;4191390;28;20650;-61
2022/12/06 01:48:22;;;;;;;0.00;0.00;;;14.70;79.90;;;;;;4190700;28;20052;-62
2022/12/06 01:51:06;;;;;;;0.00;0.00;;;14.70;78.80;;;;;;4190253;28;20565;-61
2022/12/06 01:53:49;;;;;;;0.00;0.00;;;14.70;78.60;;;;;;4197272;28;20051;-61
2022/12/06 01:56:31;;;;;;;0.00;0.00;;;14.70;78.40;;;;;;4207432;28;20129;-61
2022/12/06 01:59:13;;;;;;;0.00;0.00;;;14.70;78.50;;;;;;4207131;28;20055;-61
2022/12/06 02:01:55;;;;;;;0.00;0.00;;;14.80;78.70;;;;;;4207618;28;20047;-61
2022/12/06 02:04:36;;;;;;;0.00;0.00;;;14.80;78.50;;;;;;4207113;28;20051;-60
2022/12/06 02:07:19;;;;;;;0.05;0.05;;;14.90;78.40;;;;;;4208034;28;20067;-61
2022/12/06 02:09:59;;;;;;;;;;;14.90;78.10;;;;;;4208777;28;20189;-60
2022/12/06 02:12:40;;;;;;;2.30;2.13;;;14.90;77.90;;;;;;4207165;28;20008;-60
2022/12/06 02:15:28;;;;;;;0.00;0.00;;;14.90;77.90;;;;;;4208478;28;20063;-60
2022/12/06 02:18:13;;;;;;;0.00;0.00;;;14.90;78.00;;;;;;4210250;28;20805;-60
2022/12/06 02:21:01;;;;;;;0.00;0.00;;;14.90;78.10;;;;;;4193028;28;20059;-61
2022/12/06 02:24:10;;;;;;;0.00;0.00;;;15.00;77.90;;;;;;4210881;28;20051;-61
2022/12/06 02:26:56;;;;;;;0.00;0.00;;;15.10;77.60;;;;;;4210406;28;20189;-60
2022/12/06 02:30:07;;;;;;;0.00;0.00;;;15.10;77.50;;;;;;4210735;28;20066;-61
2022/12/06 02:32:52;;;;;;;0.10;0.10;;;15.10;77.30;;;;;;4180013;28;20038;-61
2022/12/06 02:35:38;;;;;;;0.00;0.00;;;15.10;77.40;;;;;;4209350;28;20059;-60
2022/12/06 02:38:29;;;;;;;0.00;0.00;;;15.10;77.30;;;;;;4210379;28;20487;-61
2022/12/06 02:41:16;;;;;;;0.00;0.00;;;15.10;77.20;;;;;;4198072;28;20059;-61
2022/12/06 02:44:00;;;;;;;0.00;0.00;;;15.10;77.10;;;;;;4210708;28;20285;-61
2022/12/06 02:46:42;;;;;;;0.00;0.00;;;15.10;77.20;;;;;;4210848;28;20495;-61
2022/12/06 02:49:27;;;;;;;0.00;0.00;;;15.10;77.50;;;;;;4210632;28;20574;-61
2022/12/06 02:52:08;;;;;;;0.00;0.00;;;15.00;77.40;;;;;;4209829;28;20375;-61
2022/12/06 02:54:50;;;;;;;0.00;0.00;;;15.00;77.40;;;;;;4210837;28;20066;-61
2022/12/06 02:57:41;;;;;;;0.00;0.00;;;15.00;77.60;;;;;;4211534;28;20679;-61
2022/12/06 03:00:41;;;;;;;0.00;0.00;;;15.00;77.70;;;;;;4210686;28;20063;-61
2022/12/06 03:03:51;;;;;;;0.00;0.00;;;15.10;77.80;;;;;;4210668;28;20066;-61
2022/12/06 03:06:51;;;;;;;0.00;0.00;;;15.10;77.80;;;;;;4211231;28;20086;-62
2022/12/06 03:09:48;;;;;;;0.00;0.00;;;15.10;77.80;;;;;;4205102;28;20502;-61
2022/12/06 03:12:35;;;;;;;0.00;0.00;;;15.10;77.80;;;;;;4210896;28;20438;-61
2022/12/06 03:15:23;;;;;;;0.00;0.00;;;15.10;77.80;;;;;;4211193;28;20439;-61
2022/12/06 03:18:11;;;;;;;0.00;0.00;;;15.10;77.80;;;;;;4211024;28;20433;-61
2022/12/06 03:20:54;;;;;;;0.00;0.00;;;15.10;77.90;;;;;;4193925;28;20174;-61
2022/12/06 03:23:39;;;;;;;0.00;0.00;;;15.00;78.00;;;;;;4209982;28;20047;-61
2022/12/06 03:26:25;;;;;;;0.00;0.00;;;15.00;78.10;;;;;;4202036;28;20583;-61
2022/12/06 03:29:08;;;;;;;0.00;0.00;;;15.00;78.30;;;;;;4208924;28;20097;-60
2022/12/06 03:31:51;;;;;;;0.13;0.13;;;15.10;78.30;;;;;;4209524;28;20093;-61
2022/12/06 03:34:35;;;;;;;7.00;1.75;;;15.20;78.10;;;;;;4194560;28;20461;-61
2022/12/06 03:37:21;;;;;;;0.00;0.00;;;15.20;77.90;;;;;;4193813;28;20399;-61
2022/12/06 03:40:10;;;;;;;0.00;0.00;;;15.20;77.80;;;;;;4198491;28;20472;-61
2022/12/06 03:42:52;;;;;;;0.00;0.00;;;15.20;77.70;;;;;;4210286;28;20047;-61
2022/12/06 03:45:36;;;;;;;;;;;15.30;77.60;;;;;;4210864;28;20100;-61
2022/12/06 03:48:22;;;;;;;0.00;0.00;;;15.30;77.40;;;;;;4197724;28;19942;-61
2022/12/06 03:51:07;;;;;;;0.00;0.00;;;15.30;77.40;;;;;;4208793;28;20046;-60
2022/12/06 03:53:50;;;;;;;0.00;0.00;;;15.30;77.50;;;;;;4210109;28;20102;-61
2022/12/06 03:56:35;;;;;;;0.00;0.00;;;15.30;77.50;;;;;;4209945;28;20124;-60
2022/12/06 03:59:16;;;;;;;0.00;0.00;;;15.30;77.50;;;;;;4209538;28;20050;-61
2022/12/06 04:01:57;;;;;;;0.00;0.00;;;15.30;77.50;;;;;;4208635;28;20044;-61
2022/12/06 04:04:39;;;;;;;0.00;0.00;;;15.30;77.50;;;;;;4209708;28;20106;-61
2022/12/06 04:07:20;;;;;;;0.00;0.00;;;15.30;77.50;;;;;;4210115;28;20100;-61
2022/12/06 04:10:02;;;;;;;0.00;0.00;;;15.30;77.40;;;;;;4209031;28;20109;-60
2022/12/06 04:13:00;;;;;;;0.00;0.00;;;15.30;77.40;;;;;;4198734;28;20059;-61
2022/12/06 04:15:41;;;;;;;0.00;0.00;;;15.30;77.50;;;;;;4209515;28;20047;-61
2022/12/06 04:18:21;;;;;;;0.00;0.00;;;15.40;77.40;;;;;;4210278;28;20047;-61
2022/12/06 04:24:02;;;;;;;0.00;0.00;;;15.40;77.30;;;;;;4209854;28;20121;-62
2022/12/06 04:26:43;;;;;;;0.00;0.00;;;15.40;77.20;;;;;;4193195;28;20047;-62
2022/12/06 04:44:13;;;;;;;0.00;0.00;;;15.50;77.00;;;;;;4192700;28;20182;-62
2022/12/06 04:46:55;;;;;;;0.00;0.00;;;15.50;77.00;;;;;;4203546;28;20606;-61
2022/12/06 04:49:36;;;;;;;0.00;0.00;;;15.50;77.10;;;;;;4209718;28;20051;-61
2022/12/06 04:52:17;;;;;;;0.00;0.00;;;15.50;77.00;;;;;;4209800;28;20506;-61
2022/12/06 04:54:58;;;;;;;;;;;15.60;76.80;;;;;;4193489;28;20052;-61
2022/12/06 04:57:39;;;;;;;0.00;0.00;;;15.60;76.60;;;;;;4207764;28;20583;-62
2022/12/06 05:00:20;;;;;;;0.00;0.00;;;15.60;76.40;;;;;;4208382;28;20644;-62
2022/12/06 05:03:02;;;;;;;0.00;0.00;;;15.60;76.40;;;;;;4208002;28;20117;-61
2022/12/06 05:05:43;;;;;;;0.00;0.00;;;15.60;76.50;;;;;;4208494;28;20047;-61
2022/12/06 05:08:24;;;;;;;0.00;0.00;;;15.50;76.50;;;;;;4179771;28;20534;-61
2022/12/06 05:11:06;;;;;;;0.00;0.00;;;15.50;76.80;;;;;;4199627;28;20201;-62
2022/12/06 05:13:47;;;;;;;0.00;0.00;;;15.50;76.90;;;;;;4208807;28;20051;-61
2022/12/06 05:16:28;;;;;;;0.00;0.00;;;15.60;77.00;;;;;;4208965;28;20059;-62
2022/12/06 05:19:11;;;;;;;0.00;0.00;;;15.60;76.80;;;;;;4209347;28;20050;-61
2022/12/06 05:21:55;;;;;;;0.00;0.00;;;15.60;76.70;;;;;;4207779;28;20177;-62
2022/12/06 05:24:36;;;;;;;0.00;0.00;;;15.60;76.60;;;;;;4207910;28;20216;-62
2022/12/06 05:27:17;;;;;;;0.00;0.00;;;15.60;76.70;;;;;;4194483;28;20062;-62
2022/12/06 05:29:57;;;;;;;0.00;0.00;;;15.60;76.70;;;;;;4208471;28;20498;-61
2022/12/06 05:32:38;;;;;;;0.00;0.00;;;15.60;76.80;;;;;;4209070;28;20366;-61
2022/12/06 05:35:20;;;;;;;0.00;0.00;;;15.60;76.70;;;;;;4208960;28;20055;-62
2022/12/06 05:38:01;;;;;;;0.00;0.00;;;15.60;76.70;;;;;;4208544;28;20509;-61
2022/12/06 05:40:43;;;;;;;0.00;0.00;;;15.60;76.80;;;;;;4208823;28;20186;-61
2022/12/06 05:43:23;;;;;;;0.00;0.00;;;15.60;76.80;;;;;;4208173;28;20506;-62
2022/12/06 05:46:05;;;;;;;0.00;0.00;;;15.50;77.70;;;;;;4208472;28;20615;-60
2022/12/06 05:48:46;;;;;;;0.00;0.00;;;15.50;77.00;;;;;;4208836;28;20047;-60
2022/12/06 05:51:29;;;;;;;0.00;0.00;;;15.50;76.90;;;;;;4208745;28;20051;-60
2022/12/06 05:54:09;;;;;;;0.73;0.73;;;15.60;76.90;;;;;;4208694;28;20181;-60
2022/12/06 05:56:50;;;;;;;0.00;0.00;;;15.60;76.70;;;;;;4208248;28;20043;-61
2022/12/06 05:59:32;;;;;;;0.00;0.00;;;15.60;76.60;;;;;;4209247;28;20058;-61
2022/12/06 06:02:13;;;;;;;0.00;0.00;;;15.60;76.60;;;;;;4208559;28;20063;-61
2022/12/06 06:04:54;;;;;;;0.00;0.00;;;15.60;76.60;;;;;;4206772;28;20482;-61
2022/12/06 06:07:37;;;;;;;0.00;0.00;;;15.60;76.70;;;;;;4208565;28;20074;-61
2022/12/06 06:10:18;;;;;;;0.00;0.00;;;15.60;76.70;;;;;;4206890;28;20047;-61
2022/12/06 06:12:58;;;;;;;0.10;0.10;;;15.50;76.70;;;;;;4207478;28;20051;-61
2022/12/06 06:15:39;;;;;;;0.00;0.00;;;15.50;76.90;;;;;;4207124;28;20403;-61
2022/12/06 06:18:20;;;;;;;0.00;0.00;;;15.50;77.10;;;;;;4192646;28;20067;-61
2022/12/06 06:21:02;;;;;;;0.00;0.00;;;15.50;77.00;;;;;;4208331;28;20047;-60
2022/12/06 06:23:45;;;;;;;0.00;0.00;;;15.50;77.00;;;;;;4191773;28;20063;-61
2022/12/06 06:26:26;;;;;;;0.00;0.00;;;15.50;77.00;;;;;;4200656;28;20050;-60
2022/12/06 06:29:07;;;;;;;0.00;0.00;;;15.50;77.10;;;;;;4207615;28;20483;-60
2022/12/06 06:31:48;;;;;;;0.00;0.00;;;15.50;77.30;;;;;;4207116;28;20051;-60
2022/12/06 06:34:29;;;;;;;0.00;0.00;;;15.50;77.20;;;;;;4207619;28;20367;-60
2022/12/06 06:37:10;;;;;;;0.00;0.00;;;15.50;77.10;;;;;;4208037;28;20055;-60
2022/12/06 06:39:52;;;;;;;0.00;0.00;;;15.60;77.00;;;;;;4207213;28;20096;-60
2022/12/06 06:42:33;;;;;;;0.30;0.30;;;15.60;76.90;;;;;;4207268;28;20058;-61
2022/12/06 06:45:14;;;;;;;0.10;0.10;;;15.50;76.80;;;;;;4207405;28;20043;-60
2022/12/06 06:47:55;;;;;;;0.00;0.00;;;15.60;76.90;;;;;;4194972;28;20129;-61
2022/12/06 06:50:36;;;;;;;0.00;0.00;;;15.60;76.80;;;;;;4207230;28;20047;-61
2022/12/06 06:53:17;;;;;;;0.00;0.00;;;15.60;76.70;;;;;;4207573;28;20055;-60
2022/12/06 06:55:59;;;;;;;0.00;0.00;;;15.70;76.60;;;;;;4207070;28;20501;-61
2022/12/06 06:58:40;;;;;;;0.00;0.00;;;15.70;76.50;;;;;;4207277;28;20054;-60
2022/12/06 07:01:23;;;;;;;0.00;0.00;;;15.80;77.40;;;;;;4190412;28;20071;-62
2022/12/06 07:04:05;;;;;;;0.00;0.00;;;15.80;77.10;;;;;;4183827;28;20178;-62
2022/12/06 07:06:46;;;;;;;0.00;0.00;;;15.90;76.80;;;;;;4210202;28;20069;-62
2022/12/06 07:09:27;;;;;;;0.00;0.00;;;15.90;76.50;;;;;;4210267;28;20617;-62
2022/12/06 07:12:09;;;;;;;2.65;1.40;;;15.90;76.20;;;;;;4198567;28;20055;-62
2022/12/06 07:14:50;;;;;;;0.00;0.00;;;16.00;75.80;;;;;;4210456;28;20113;-63
2022/12/06 07:17:31;;;;;;;0.00;0.00;;;16.00;75.60;;;;;;4209915;28;20165;-63
2022/12/06 07:20:12;;;;;;;0.00;0.00;;;16.00;75.50;;;;;;4210142;28;20894;-63
2022/12/06 07:22:55;;;;;;;0.00;0.00;;;16.00;75.50;;;;;;4209846;28;20535;-63
2022/12/06 07:25:36;;;;;;;0.00;0.00;;;16.00;75.30;;;;;;4209740;28;20051;-63
2022/12/06 07:28:18;;;;;;;0.00;0.00;;;16.00;75.10;;;;;;4209844;28;20126;-63
2022/12/06 07:31:08;;;;;;;0.00;0.00;;;16.00;75.10;;;;;;4209773;28;20181;-62
2022/12/06 07:33:52;;;;;;;0.00;0.00;;;16.00;75.00;;;;;;4200987;28;20399;-62
2022/12/06 07:36:33;;;;;;;0.00;0.00;;;16.00;75.30;;;;;;4194153;28;20375;-62
2022/12/06 07:39:14;;;;;;;3.97;1.95;;;16.00;75.20;;;;;;4208110;28;20398;-62
2022/12/06 07:45:04;;;;;;;0.00;0.00;;;16.10;75.30;;;;;;4193725;28;20188;-62
2022/12/06 07:47:45;;;;;;;0.00;0.00;;;16.20;75.10;;;;;;4177367;28;20053;-62
2022/12/06 07:50:25;;;;;;;0.00;0.00;;;16.10;74.80;;;;;;4192925;28;20086;-62
2022/12/06 07:53:06;;;;;;;0.00;0.00;;;16.10;74.50;;;;;;4192375;28;20108;-62
2022/12/06 07:55:47;;;;;;;1.15;0.63;;;16.10;74.60;;;;;;4194497;28;20546;-62
2022/12/06 07:58:28;;;;;;;0.17;0.17;;;16.10;74.50;;;;;;4192890;28;20059;-62
2022/12/06 08:01:11;;;;;;;0.00;0.00;;;16.10;74.40;;;;;;4192423;28;20186;-62
2022/12/06 08:03:54;;;;;;;0.00;0.00;;;16.10;74.10;;;;;;4189971;28;20067;-62
2022/12/06 08:06:35;;;;;;;0.00;0.00;;;16.10;74.00;;;;;;4196500;28;20067;-62
2022/12/06 08:09:16;;;;;;;0.00;0.00;;;16.10;74.20;;;;;;4205274;28;20505;-61
2022/12/06 08:11:57;;;;;;;0.55;0.55;;;16.10;74.20;;;;;;4192608;28;20044;-61
2022/12/06 08:14:39;;;;;;;0.00;0.00;;;16.10;74.00;;;;;;4188121;28;20126;-61
2022/12/06 08:17:21;;;;;;;0.00;0.00;;;16.20;73.70;;;;;;4209314;28;20108;-61
2022/12/06 08:20:02;;;;;;;0.00;0.00;;;16.20;73.50;;;;;;4209025;28;20047;-61
2022/12/06 08:22:43;;;;;;;0.00;0.00;;;16.20;73.20;;;;;;4209273;28;20073;-61
2022/12/06 08:25:24;;;;;;;0.00;0.00;;;16.30;74.10;;;;;;4208941;28;20055;-61
2022/12/06 08:28:05;;;;;;;0.00;0.00;;;16.20;73.10;;;;;;4209279;28;20054;-61
2022/12/06 08:30:46;;;;;;;0.20;0.20;;;16.20;73.40;;;;;;4208698;28;20051;-61
2022/12/06 08:33:29;;;;;;;0.00;0.00;;;16.10;73.40;;;;;;4177825;28;20056;-61
2022/12/06 08:36:12;;;;;;;0.25;0.10;;;16.10;73.60;;;;;;4191112;28;20399;-61
2022/12/06 08:38:53;;;;;;;0.00;0.00;;;16.10;73.40;;;;;;4209711;28;20497;-61
2022/12/06 08:44:33;;;;;;;0.30;0.30;;;16.20;72.80;;;;;;4207074;28;20077;-61
2022/12/06 08:47:13;;;;;;;24.13;1.10;;;16.30;72.60;;;;;;4208351;28;20051;-60
2022/12/06 08:49:57;;;;;;;0.00;0.00;;;16.30;72.50;;;;;;4203887;28;20055;-60
2022/12/06 08:52:38;;;;;;;0.00;0.00;;;16.20;72.50;;;;;;4209973;28;20293;-61
2022/12/06 08:55:19;;;;;;;0.10;0.10;;;16.20;72.70;;;;;;4208999;28;20568;-60
2022/12/06 08:58:00;;;;;;;0.00;0.00;;;16.10;72.90;;;;;;4192828;28;20051;-61
2022/12/06 09:00:41;;;;;;;0.00;0.00;;;16.10;73.10;;;;;;4208516;28;20411;-62
2022/12/06 09:03:22;;;;;;;0.00;0.00;;;16.00;73.50;;;;;;4192429;28;20506;-60
2022/12/06 09:06:05;;;;;;;2.45;1.48;;;15.90;73.70;;;;;;4207144;28;20051;-60
2022/12/06 09:08:46;;;;;;;0.00;0.00;;;15.90;73.90;;;;;;4196652;28;20533;-62
2022/12/06 09:11:27;;;;;;;0.00;0.00;;;15.90;74.00;;;;;;4192440;28;20826;-62
2022/12/06 09:14:10;;;;;;;0.00;0.00;;;15.80;74.20;;;;;;4202520;28;20105;-62
2022/12/06 09:16:54;;;;;;;0.00;0.00;;;15.80;74.30;;;;;;4207922;28;20088;-62
2022/12/06 09:19:35;;;;;;;0.40;0.40;;;15.90;74.20;;;;;;4192399;28;20060;-61
2022/12/06 09:22:16;;;;;;;0.22;0.22;;;15.90;73.90;;;;;;4200425;28;20109;-61
2022/12/06 09:24:57;;;;;;;0.00;0.00;;;15.90;73.80;;;;;;4205166;28;20051;-64
2022/12/06 09:27:39;;;;;;;0.00;0.00;;;15.90;73.70;;;;;;4222129;28;20351;-63
2022/12/06 09:30:19;;;;;;;;;;;15.90;73.90;;;;;;4200031;28;20185;-61
2022/12/06 09:33:00;;;;;;;0.00;0.00;;;15.80;73.90;;;;;;4204542;28;19931;-60
2022/12/06 09:35:42;;;;;;;0.00;0.00;;;15.80;75.00;;;;;;4205246;28;20089;-62
2022/12/06 09:38:27;;;;;;;3.20;1.00;;;15.90;74.10;;;;;;4208321;28;20498;-62
2022/12/06 09:41:20;;;;;;;0.00;0.00;;;15.90;73.70;;;;;;4192177;28;20371;-62
2022/12/06 09:44:13;;;;;;;0.00;0.00;;;16.00;74.40;;;;;;4187252;28;20511;-61
2022/12/06 09:47:07;;;;;;;0.00;0.00;;;16.00;73.30;;;;;;4174394;28;20685;-63
2022/12/06 09:49:57;;;;;;;0.73;0.52;;;16.00;73.30;;;;;;4173727;28;20098;-61
2022/12/06 09:52:51;;;;;;;0.00;0.00;;;16.00;73.40;;;;;;4201907;28;20077;-62
2022/12/06 09:55:52;;;;;;;0.00;0.00;;;15.90;73.50;;;;;;4201012;28;20047;-62
2022/12/06 09:58:58;;;;;;;0.00;0.00;;;15.90;73.80;;;;;;4191836;28;20047;-63
2022/12/06 10:01:53;;;;;;;0.15;0.15;;;15.80;74.00;;;;;;4191389;28;20055;-63
2022/12/06 10:05:04;;;;;;;0.00;0.00;;;15.70;74.40;;;;;;4193372;28;20141;-63
2022/12/06 10:07:53;;;;;;;0.00;0.00;;;15.70;74.60;;;;;;4197384;28;20062;-63
2022/12/06 10:10:49;;;;;;;0.00;0.00;;;15.70;74.60;;;;;;4207766;28;20419;-62
2022/12/06 10:13:45;;;;;;;0.15;0.15;;;15.70;74.60;;;;;;4207354;28;20059;-63
2022/12/06 10:16:37;;;;;;;0.00;0.00;;;15.70;75.60;;;;;;4194880;28;20201;-63
2022/12/06 10:19:24;;;;;;;;;;;15.70;74.90;;;;;;4208178;28;20487;-63
2022/12/06 10:22:14;;;;;;;0.00;0.00;;;15.60;75.00;;;;;;4195436;28;19931;-63
2022/12/06 10:25:02;;;;;;;0.00;0.00;;;15.60;75.20;;;;;;4207342;28;20055;-63
2022/12/06 10:27:53;;;;;;;0.10;0.10;;;15.60;75.40;;;;;;4194812;28;20047;-63
2022/12/06 10:30:39;;;;;;;0.03;0.03;;;15.60;75.20;;;;;;4194344;28;20099;-62
2022/12/06 10:33:33;;;;;;;0.05;0.05;;;15.60;75.00;;;;;;4202399;28;20040;-62
2022/12/06 10:36:17;;;;;;;0.00;0.00;;;15.70;75.00;;;;;;4190828;28;20059;-63
2022/12/06 10:39:09;;;;;;;0.32;0.32;;;15.70;74.90;;;;;;4207308;28;20089;-62
2022/12/06 10:41:56;;;;;;;0.00;0.00;;;15.70;74.60;;;;;;4210016;28;20055;-62
2022/12/06 10:44:43;;;;;;;0.52;0.52;;;15.80;74.60;;;;;;4198521;28;20418;-62
2022/12/06 10:47:27;;;;;;;0.00;0.00;;;15.80;74.60;;;;;;4210521;28;20055;-62
2022/12/06 10:50:21;;;;;;;0.00;0.00;;;15.80;74.80;;;;;;4210865;28;20158;-63
2022/12/06 10:53:09;;;;;;;0.00;0.00;;;15.90;74.90;;;;;;4210133;28;20055;-63
2022/12/06 10:55:56;;;;;;;0.00;0.00;;;15.90;74.70;;;;;;4210179;28;20054;-63
2022/12/06 10:58:43;;;;;;;0.00;0.00;;;15.90;75.20;;;;;;4210903;28;20415;-63
2022/12/06 11:01:28;;;;;;;0.50;0.50;;;16.00;74.20;;;;;;4209833;28;20062;-63
2022/12/06 11:04:15;;;;;;;0.00;0.00;;;16.00;74.20;;;;;;4210420;28;20051;-61
2022/12/06 11:07:02;;;;;;;0.00;0.00;;;16.00;74.10;;;;;;4210299;28;20062;-63
2022/12/06 11:09:45;;;;;;;0.00;0.00;;;16.00;73.90;;;;;;4194402;28;20273;-63
2022/12/06 11:12:33;;;;;;;0.00;0.00;;;16.00;73.80;;;;;;4194579;28;20214;-63
2022/12/06 11:15:18;;;;;;;0.00;0.00;;;16.00;73.70;;;;;;4194095;28;20051;-63
2022/12/06 11:18:08;;;;;;;0.00;0.00;;;16.00;73.90;;;;;;4177607;28;20052;-63
2022/12/06 11:20:57;;;;;;;0.00;0.00;;;16.00;74.10;;;;;;4188191;28;20051;-62
2022/12/06 11:23:45;;;;;;;0.55;0.55;;;16.00;74.20;;;;;;4193707;28;20039;-61
2022/12/06 11:26:34;;;;;;;0.00;0.00;;;16.00;73.90;;;;;;4193626;28;20516;-60
2022/12/06 11:29:16;;;;;;;0.00;0.00;;;16.10;73.90;;;;;;4192480;28;20057;-61
2022/12/06 11:31:59;;;;;;;0.05;0.05;;;16.10;74.30;;;;;;4192257;28;20059;-60
2022/12/06 11:34:46;;;;;;;0.00;0.00;;;16.10;74.30;;;;;;4193421;28;20056;-59
2022/12/06 11:37:30;;;;;;;0.00;0.00;;;16.10;74.40;;;;;;4197311;28;20149;-60
2022/12/06 11:40:22;;;;;;;0.00;0.00;;;16.10;74.50;;;;;;4209426;28;20100;-59
2022/12/06 11:43:08;;;;;;;0.05;0.05;;;16.10;74.70;;;;;;4204148;28;20051;-61
2022/12/06 11:45:50;;;;;;;0.00;0.00;;;16.10;74.50;;;;;;4209434;28;20109;-61
2022/12/06 11:48:33;;;;;;;0.10;0.10;;;16.20;74.20;;;;;;4198199;28;20850;-61
2022/12/06 11:51:20;;;;;;;0.00;0.00;;;16.30;74.00;;;;;;4193069;28;20043;-61
2022/12/06 11:54:05;;;;;;;0.10;0.10;;;16.30;74.60;;;;;;4209043;28;20419;-62
2022/12/06 11:56:46;;;;;;;0.00;0.00;;;16.30;73.50;;;;;;4202638;28;20059;-61
2022/12/06 11:59:29;;;;;;;0.00;0.00;;;16.30;73.50;;;;;;4180209;28;20183;-61
2022/12/06 12:02:31;;;;;;;0.05;0.05;;;16.30;73.70;;;;;;4207920;28;20043;-61
2022/12/06 12:05:17;;;;;;;;;;;16.20;73.80;;;;;;4192435;28;20405;-62
2022/12/06 12:08:02;;;;;;;0.00;0.00;;;16.20;74.00;;;;;;4196510;28;19927;-61
2022/12/06 12:10:44;;;;;;;0.00;0.00;;;16.10;74.20;;;;;;4208833;28;20055;-62
2022/12/06 12:13:46;;;;;;;0.00;0.00;;;16.10;74.50;;;;;;4208894;28;20059;-62
2022/12/06 12:16:30;;;;;;;0.35;0.35;;;16.00;74.90;;;;;;4192305;28;20515;-62
2022/12/06 12:19:30;;;;;;;0.00;0.00;;;15.90;75.20;;;;;;4192292;28;20063;-62
2022/12/06 12:22:21;;;;;;;0.10;0.10;;;15.90;75.50;;;;;;4207707;28;20055;-61
2022/12/06 12:25:22;;;;;;;0.00;0.00;;;15.90;75.90;;;;;;4196608;28;20501;-62
2022/12/06 12:28:03;;;;;;;;;;;15.80;76.20;;;;;;4208710;28;20063;-62
2022/12/06 12:30:52;;;;;;;0.00;0.00;;;15.80;76.50;;;;;;4208769;28;20016;-62
2022/12/06 12:33:33;;;;;;;0.00;0.00;;;15.70;76.70;;;;;;4208843;28;20050;-62
2022/12/06 12:36:18;;;;;;;0.00;0.00;;;15.70;77.10;;;;;;4208469;28;20051;-60
2022/12/06 12:39:00;;;;;;;0.00;0.00;;;15.60;78.00;;;;;;4208903;28;20051;-61
2022/12/06 12:41:44;;;;;;;0.00;0.00;;;15.60;78.60;;;;;;4208500;28;20120;-63
2022/12/06 12:44:28;;;;;;;0.00;0.00;;;15.60;79.30;;;;;;4184423;28;20055;-63
2022/12/06 12:47:19;;;;;;;0.00;0.00;;;15.50;80.30;;;;;;4200610;28;20054;-63
2022/12/06 12:50:02;;;;;;;0.45;0.45;;;15.50;79.50;;;;;;4193869;28;20575;-63
2022/12/06 12:52:43;;;;;;;0.00;0.00;;;15.50;79.50;;;;;;4191357;28;20043;-63
2022/12/06 12:55:27;;;;;;;0.08;0.08;;;15.40;79.50;;;;;;4208796;28;20054;-62
2022/12/06 12:58:11;;;;;;;0.00;0.00;;;15.40;79.50;;;;;;4204365;28;20044;-62
2022/12/06 13:00:54;;;;;;;0.00;0.00;;;15.40;79.60;;;;;;4204746;28;20286;-62
2022/12/06 13:03:36;;;;;;;0.00;0.00;;;15.30;79.60;;;;;;4206603;28;20359;-62
2022/12/06 13:06:42;;;;;;;0.00;0.00;;;15.30;79.70;;;;;;4201133;28;20078;-62
2022/12/06 13:09:28;;;;;;;0.17;0.17;;;15.30;79.80;;;;;;4195664;28;20105;-63
2022/12/06 13:12:14;;;;;;;0.20;0.20;;;15.20;79.80;;;;;;4207344;28;20051;-63
2022/12/06 13:15:02;;;;;;;0.00;0.00;;;15.20;79.90;;;;;;4207473;28;20114;-63
2022/12/06 13:17:50;;;;;;;0.13;0.13;;;15.20;80.00;;;;;;4208036;28;20070;-62
2022/12/06 13:20:36;;;;;;;1.23;0.47;;;15.10;80.00;;;;;;4204595;28;20214;-63
2022/12/06 13:23:20;;;;;;;0.00;0.00;;;15.10;80.30;;;;;;4190707;28;20043;-62
2022/12/06 13:26:16;;;;;;;0.00;0.00;;;15.10;80.30;;;;;;4205808;28;20043;-63
2022/12/06 13:29:01;;;;;;;0.00;0.00;;;15.00;80.30;;;;;;4206045;28;20113;-63
2022/12/06 13:31:43;;;;;;;0.00;0.00;;;15.00;80.60;;;;;;4207004;28;20400;-63
2022/12/06 13:34:30;;;;;;;0.10;0.10;;;14.90;80.60;;;;;;4201870;28;20533;-62
2022/12/06 13:37:34;;;;;;;0.00;0.00;;;14.90;81.00;;;;;;4192074;28;20134;-62
2022/12/06 13:40:37;;;;;;;0.00;0.00;;;14.90;80.90;;;;;;4193293;28;20051;-63
2022/12/06 13:43:54;;;;;;;1.70;1.58;;;14.90;81.00;;;;;;4205764;28;20448;-63
2022/12/06 13:46:35;;;;;;;0.00;0.00;;;14.90;81.10;;;;;;4207229;28;20120;-63
2022/12/06 13:49:42;;;;;;;0.00;0.00;;;14.80;81.20;;;;;;4201731;28;20367;-63
2022/12/06 13:52:57;;;;;;;0.00;0.00;;;14.80;81.30;;;;;;4202596;28;20225;-63
2022/12/06 13:55:50;;;;;;;0.00;0.00;;;14.80;81.50;;;;;;4191034;28;20055;-63
2022/12/06 13:58:48;;;;;;;0.00;0.00;;;14.70;81.60;;;;;;4178700;28;20528;-63
2022/12/06 14:01:42;;;;;;;0.00;0.00;;;14.70;81.80;;;;;;4191317;28;20059;-63
2022/12/06 14:04:36;;;;;;;0.68;0.68;;;14.70;81.90;;;;;;4191297;28;20059;-64
2022/12/06 14:07:32;;;;;;;0.05;0.05;;;14.70;83.80;;;;;;4205636;28;20108;-63
2022/12/06 14:10:14;;;;;;;0.00;0.00;;;14.70;83.40;;;;;;4193858;28;20132;-66
2022/12/06 14:12:59;;;;;;;1.08;0.68;;;14.80;83.10;;;;;;4202811;28;20058;-66
2022/12/06 14:15:40;;;;;;;0.00;0.00;;;14.80;82.80;;;;;;4204201;28;20379;-66
2022/12/06 14:18:24;;;;;;;1.20;0.55;;;14.70;82.50;;;;;;4204655;28;20079;-63
2022/12/06 14:21:19;;;;;;;0.00;0.00;;;14.70;82.50;;;;;;4205897;28;20054;-63
2022/12/06 14:24:00;;;;;;;0.00;0.00;;;14.70;83.40;;;;;;4195493;28;20129;-63
2022/12/06 14:26:40;;;;;;;0.00;0.00;;;14.60;82.60;;;;;;4207547;28;20046;-63
2022/12/06 14:29:23;;;;;;;0.00;0.00;;;14.60;82.60;;;;;;4207357;28;20059;-61
2022/12/06 14:32:05;;;;;;;0.20;0.20;;;14.60;83.00;;;;;;4194895;28;20050;-60
2022/12/06 14:34:47;;;;;;;0.00;0.00;;;14.60;83.70;;;;;;4207225;28;20046;-61
2022/12/06 14:37:30;;;;;;;0.10;0.10;;;14.60;83.70;;;;;;4206930;28;20162;-60
2022/12/06 14:40:22;;;;;;;0.10;0.10;;;14.60;83.40;;;;;;4191304;28;20055;-60
2022/12/06 14:43:23;;;;;;;0.00;0.00;;;14.60;83.40;;;;;;4191494;28;20050;-62